createdAt,value
2022-12-28T00:00:10.246Z,83.82
2022-12-28T00:00:22.388Z,83.77
2022-12-28T00:00:34.412Z,83.13
2022-12-28T00:00:46.462Z,83.46
2022-12-28T00:01:10.509Z,83.58
2022-12-28T00:01:28.249Z,83.95
2022-12-28T00:01:40.277Z,83.46
2022-12-28T00:01:52.292Z,83.39
2022-12-28T00:02:04.282Z,83.52
2022-12-28T00:02:16.618Z,83.26
2022-12-28T00:02:31.710Z,82.97
2022-12-28T00:02:43.796Z,82.95
2022-12-28T00:03:01.082Z,83.05
2022-12-28T00:03:13.165Z,83.03
2022-12-28T00:03:25.138Z,82.60
2022-12-28T00:03:37.062Z,82.56
2022-12-28T00:03:49.752Z,83.00
2022-12-28T00:04:04.604Z,82.99
2022-12-28T00:04:16.655Z,82.91
2022-12-28T00:04:28.617Z,82.27
2022-12-28T00:04:40.591Z,82.42
2022-12-28T00:04:52.559Z,82.11
2022-12-28T00:05:04.883Z,82.33
2022-12-28T00:05:17.846Z,82.61
2022-12-28T00:05:29.882Z,82.07
2022-12-28T00:05:41.780Z,82.57
2022-12-28T00:05:53.773Z,82.17
2022-12-28T00:06:06.883Z,82.83
2022-12-28T00:06:20.389Z,82.25
2022-12-28T00:06:34.427Z,82.30
2022-12-28T00:06:47.478Z,82.79
2022-12-28T00:06:59.468Z,82.91
2022-12-28T00:07:11.577Z,82.85
2022-12-28T00:07:23.693Z,82.37
2022-12-28T00:07:35.593Z,83.04
2022-12-28T00:07:47.556Z,83.06
2022-12-28T00:07:59.554Z,82.56
2022-12-28T00:08:11.616Z,82.89
2022-12-28T00:08:23.549Z,82.92
2022-12-28T00:08:36.013Z,83.24
2022-12-28T00:08:47.997Z,83.29
2022-12-28T00:09:00.910Z,84.10
2022-12-28T00:09:13.481Z,83.47
2022-12-28T00:09:25.502Z,83.61
2022-12-28T00:09:37.460Z,83.57
2022-12-28T00:09:49.479Z,84.28
2022-12-28T00:10:01.484Z,84.11
2022-12-28T00:10:13.419Z,83.60
2022-12-28T00:11:07.911Z,83.24
2022-12-28T00:11:07.994Z,83.84
2022-12-28T00:11:27.813Z,83.28
2022-12-28T00:11:42.558Z,83.75
2022-12-28T00:11:54.501Z,83.35
2022-12-28T00:12:06.498Z,83.28
2022-12-28T00:12:18.424Z,83.43
2022-12-28T00:12:30.380Z,84.22
2022-12-28T00:12:42.326Z,84.17
2022-12-28T00:12:54.305Z,84.22
2022-12-28T00:13:06.252Z,84.60
2022-12-28T00:13:18.200Z,84.29
2022-12-28T00:13:31.115Z,84.61
2022-12-28T00:13:43.618Z,84.45
2022-12-28T00:13:56.573Z,84.46
2022-12-28T00:14:08.735Z,84.47
2022-12-28T00:14:20.708Z,84.91
2022-12-28T00:14:32.650Z,84.46
2022-12-28T00:14:46.107Z,84.59
2022-12-28T00:14:59.192Z,84.57
2022-12-28T00:15:11.321Z,83.73
2022-12-28T00:15:23.285Z,84.02
2022-12-28T00:15:37.208Z,82.99
2022-12-28T00:15:49.195Z,83.43
2022-12-28T00:16:20.985Z,83.57
2022-12-28T00:16:41.014Z,84.03
2022-12-28T00:16:53.009Z,84.40
2022-12-28T00:17:05.012Z,84.71
2022-12-28T00:17:16.939Z,84.59
2022-12-28T00:17:28.887Z,83.91
2022-12-28T00:17:40.849Z,83.40
2022-12-28T00:17:52.768Z,84.29
2022-12-28T00:18:04.718Z,83.54
2022-12-28T00:18:16.670Z,83.90
2022-12-28T00:18:28.576Z,83.78
2022-12-28T00:18:40.533Z,83.04
2022-12-28T00:18:53.269Z,83.18
2022-12-28T00:19:10.273Z,83.33
2022-12-28T00:19:22.605Z,83.11
2022-12-28T00:19:34.582Z,82.76
2022-12-28T00:19:46.641Z,82.79
2022-12-28T00:19:59.416Z,83.57
2022-12-28T00:20:11.873Z,83.18
2022-12-28T00:20:23.825Z,83.53
2022-12-28T00:20:35.771Z,83.02
2022-12-28T00:20:58.763Z,82.97
2022-12-28T00:21:10.707Z,82.97
2022-12-28T00:21:23.371Z,83.21
2022-12-28T00:21:35.325Z,82.77
2022-12-28T00:21:47.495Z,82.57
2022-12-28T00:21:59.446Z,83.39
2022-12-28T00:22:11.408Z,83.20
2022-12-28T00:22:23.327Z,83.10
2022-12-28T00:22:35.245Z,83.45
2022-12-28T00:22:47.205Z,82.58
2022-12-28T00:22:59.135Z,82.48
2022-12-28T00:23:11.071Z,81.91
2022-12-28T00:23:23.117Z,81.94
2022-12-28T00:23:35.145Z,81.71
2022-12-28T00:23:51.447Z,81.85
2022-12-28T00:24:04.525Z,81.82
2022-12-28T00:24:21.858Z,82.21
2022-12-28T00:24:36.462Z,81.73
2022-12-28T00:24:48.754Z,81.78
2022-12-28T00:25:00.734Z,81.73
2022-12-28T00:25:12.666Z,81.77
2022-12-28T00:25:24.638Z,82.09
2022-12-28T00:25:36.861Z,82.03
2022-12-28T00:25:48.839Z,81.95
2022-12-28T00:26:12.408Z,82.18
2022-12-28T00:26:25.280Z,81.90
2022-12-28T00:26:37.330Z,82.09
2022-12-28T00:26:49.943Z,81.82
2022-12-28T00:27:01.873Z,82.21
2022-12-28T00:27:13.816Z,81.83
2022-12-28T00:27:25.808Z,82.37
2022-12-28T00:27:37.761Z,82.71
2022-12-28T00:27:49.694Z,81.76
2022-12-28T00:28:14.129Z,82.36
2022-12-28T00:28:26.033Z,82.11
2022-12-28T00:28:38.745Z,81.39
2022-12-28T00:28:50.784Z,81.84
2022-12-28T00:29:05.684Z,81.64
2022-12-28T00:29:18.825Z,81.86
2022-12-28T00:29:30.824Z,81.65
2022-12-28T00:29:42.720Z,81.13
2022-12-28T00:29:54.652Z,81.62
2022-12-28T00:30:07.207Z,81.62
2022-12-28T00:30:19.187Z,81.83
2022-12-28T00:30:31.176Z,81.44
2022-12-28T00:30:43.090Z,81.96
2022-12-28T00:30:57.650Z,81.79
2022-12-28T00:31:12.928Z,81.96
2022-12-28T00:31:24.945Z,81.80
2022-12-28T00:31:37.046Z,82.16
2022-12-28T00:31:49.092Z,82.22
2022-12-28T00:32:01.250Z,81.69
2022-12-28T00:32:13.276Z,82.02
2022-12-28T00:32:27.518Z,82.17
2022-12-28T00:32:39.487Z,82.56
2022-12-28T00:32:51.398Z,82.04
2022-12-28T00:33:03.357Z,82.48
2022-12-28T00:33:15.420Z,82.17
2022-12-28T00:33:27.337Z,81.90
2022-12-28T00:33:39.329Z,81.45
2022-12-28T00:33:51.352Z,81.25
2022-12-28T00:34:04.530Z,81.61
2022-12-28T00:34:16.567Z,82.05
2022-12-28T00:34:28.573Z,81.70
2022-12-28T00:34:40.747Z,81.53
2022-12-28T00:34:52.725Z,81.69
2022-12-28T00:35:05.607Z,82.03
2022-12-28T00:35:17.538Z,82.03
2022-12-28T00:35:29.495Z,81.66
2022-12-28T00:35:41.527Z,82.12
2022-12-28T00:35:55.022Z,82.04
2022-12-28T00:36:07.532Z,81.59
2022-12-28T00:36:19.492Z,81.51
2022-12-28T00:37:10.477Z,81.91
2022-12-28T00:37:12.346Z,81.55
2022-12-28T00:37:24.995Z,81.36
2022-12-28T00:37:37.372Z,81.84
2022-12-28T00:37:49.265Z,81.69
2022-12-28T00:38:01.182Z,81.96
2022-12-28T00:38:13.115Z,82.18
2022-12-28T00:38:25.724Z,82.10
2022-12-28T00:38:38.390Z,81.22
2022-12-28T00:38:50.517Z,81.33
2022-12-28T00:39:05.637Z,81.01
2022-12-28T00:39:19.005Z,81.71
2022-12-28T00:39:30.964Z,81.87
2022-12-28T00:39:43.073Z,81.68
2022-12-28T00:39:55.011Z,80.74
2022-12-28T00:40:07.461Z,81.32
2022-12-28T00:40:23.995Z,81.38
2022-12-28T00:40:36.227Z,81.45
2022-12-28T00:40:48.247Z,80.84
2022-12-28T00:41:00.253Z,80.95
2022-12-28T00:41:12.350Z,81.38
2022-12-28T00:41:24.485Z,81.29
2022-12-28T00:41:36.417Z,81.32
2022-12-28T00:41:48.477Z,80.61
2022-12-28T00:42:00.425Z,80.89
2022-12-28T00:42:12.400Z,80.91
2022-12-28T00:42:24.471Z,80.68
2022-12-28T00:42:36.652Z,80.83
2022-12-28T00:42:48.684Z,80.92
2022-12-28T00:43:00.733Z,80.88
2022-12-28T00:43:12.737Z,80.95
2022-12-28T00:43:24.820Z,81.41
2022-12-28T00:43:37.195Z,81.23
2022-12-28T00:43:49.389Z,81.43
2022-12-28T00:44:01.317Z,81.16
2022-12-28T00:44:13.311Z,80.95
2022-12-28T00:44:25.265Z,81.51
2022-12-28T00:44:37.317Z,81.15
2022-12-28T00:44:49.288Z,81.15
2022-12-28T00:45:01.191Z,81.74
2022-12-28T00:45:13.147Z,81.60
2022-12-28T00:45:25.062Z,81.73
2022-12-28T00:45:37.162Z,81.21
2022-12-28T00:45:49.421Z,81.21
2022-12-28T00:46:02.023Z,81.07
2022-12-28T00:46:14.252Z,81.80
2022-12-28T00:46:26.194Z,81.94
2022-12-28T00:46:38.419Z,81.50
2022-12-28T00:46:50.465Z,81.53
2022-12-28T00:47:02.469Z,81.41
2022-12-28T00:47:14.422Z,81.02
2022-12-28T00:47:26.439Z,81.19
2022-12-28T00:47:38.411Z,80.66
2022-12-28T00:47:50.421Z,80.88
2022-12-28T00:48:02.575Z,80.90
2022-12-28T00:48:15.322Z,80.47
2022-12-28T00:48:27.374Z,80.37
2022-12-28T00:48:39.268Z,80.38
2022-12-28T00:48:51.213Z,80.47
2022-12-28T00:49:03.243Z,80.38
2022-12-28T00:49:15.142Z,80.58
2022-12-28T00:49:27.039Z,80.56
2022-12-28T00:49:39.064Z,80.92
2022-12-28T00:49:51.105Z,81.18
2022-12-28T00:50:03.177Z,81.02
2022-12-28T00:50:15.200Z,81.32
2022-12-28T00:50:27.177Z,80.91
2022-12-28T00:50:39.117Z,80.70
2022-12-28T00:50:51.060Z,81.33
2022-12-28T00:51:08.376Z,81.41
2022-12-28T00:51:20.799Z,81.56
2022-12-28T00:51:32.818Z,81.41
2022-12-28T00:51:44.843Z,80.98
2022-12-28T00:51:56.963Z,81.53
2022-12-28T00:52:09.181Z,81.39
2022-12-28T00:52:21.149Z,80.91
2022-12-28T00:52:33.156Z,80.52
2022-12-28T00:52:45.050Z,81.39
2022-12-28T00:52:57.024Z,81.77
2022-12-28T00:53:10.145Z,81.26
2022-12-28T00:53:22.019Z,81.87
2022-12-28T00:53:33.996Z,82.09
2022-12-28T00:53:46.115Z,81.02
2022-12-28T00:53:58.548Z,81.22
2022-12-28T00:54:10.588Z,81.25
2022-12-28T00:54:22.614Z,81.67
2022-12-28T00:54:34.606Z,81.09
2022-12-28T00:54:46.540Z,81.98
2022-12-28T00:55:01.151Z,81.81
2022-12-28T00:55:13.067Z,81.98
2022-12-28T00:55:25.009Z,81.77
2022-12-28T00:55:37.868Z,81.53
2022-12-28T00:55:49.809Z,80.82
2022-12-28T00:56:18.851Z,81.01
2022-12-28T00:56:30.901Z,80.95
2022-12-28T00:56:42.997Z,80.92
2022-12-28T00:56:54.977Z,81.03
2022-12-28T00:57:06.995Z,80.60
2022-12-28T00:57:18.888Z,80.43
2022-12-28T00:57:31.090Z,81.22
2022-12-28T00:57:43.052Z,80.88
2022-12-28T00:57:54.949Z,80.97
2022-12-28T00:58:07.933Z,80.94
2022-12-28T00:58:20.071Z,80.91
2022-12-28T00:58:32.723Z,80.64
2022-12-28T00:58:45.972Z,80.73
2022-12-28T00:59:02.219Z,81.16
2022-12-28T00:59:14.156Z,80.51
2022-12-28T00:59:26.085Z,81.15
2022-12-28T00:59:38.324Z,81.47
2022-12-28T00:59:50.271Z,81.48
2022-12-28T01:00:02.334Z,81.65
2022-12-28T01:00:15.138Z,81.06
2022-12-28T01:00:30.539Z,81.48
2022-12-28T01:00:42.583Z,81.88
2022-12-28T01:00:54.761Z,81.54
2022-12-28T01:01:12.619Z,81.53
2022-12-28T01:01:25.749Z,81.61
2022-12-28T01:01:38.553Z,81.97
2022-12-28T01:01:50.625Z,81.87
2022-12-28T01:02:02.738Z,81.84
2022-12-28T01:02:14.855Z,82.13
2022-12-28T01:02:26.820Z,81.98
2022-12-28T01:02:38.998Z,82.11
2022-12-28T01:02:50.978Z,81.64
2022-12-28T01:03:05.262Z,81.58
2022-12-28T01:03:17.226Z,81.57
2022-12-28T01:03:29.225Z,81.43
2022-12-28T01:03:41.516Z,81.37
2022-12-28T01:03:56.981Z,81.82
2022-12-28T01:04:08.980Z,81.61
2022-12-28T01:04:20.921Z,81.63
2022-12-28T01:04:32.837Z,81.90
2022-12-28T01:04:44.990Z,81.92
2022-12-28T01:04:56.981Z,81.52
2022-12-28T01:05:09.535Z,81.51
2022-12-28T01:05:24.168Z,81.34
2022-12-28T01:05:40.966Z,81.77
2022-12-28T01:05:52.921Z,81.12
2022-12-28T01:06:06.427Z,81.22
2022-12-28T01:06:21.293Z,81.00
2022-12-28T01:06:33.491Z,81.60
2022-12-28T01:06:45.408Z,81.45
2022-12-28T01:06:57.387Z,81.42
2022-12-28T01:07:09.301Z,81.19
2022-12-28T01:07:21.252Z,81.65
2022-12-28T01:07:33.199Z,81.29
2022-12-28T01:07:45.127Z,81.07
2022-12-28T01:07:57.094Z,81.20
2022-12-28T01:08:09.009Z,81.01
2022-12-28T01:08:21.091Z,80.98
2022-12-28T01:08:33.190Z,81.11
2022-12-28T01:08:45.374Z,80.99
2022-12-28T01:08:57.462Z,80.55
2022-12-28T01:09:09.441Z,80.66
2022-12-28T01:09:21.378Z,80.52
2022-12-28T01:09:33.282Z,80.52
2022-12-28T01:09:45.749Z,80.56
2022-12-28T01:09:57.720Z,80.73
2022-12-28T01:10:10.000Z,81.01
2022-12-28T01:10:21.946Z,80.64
2022-12-28T01:10:33.908Z,81.01
2022-12-28T01:10:45.867Z,80.78
2022-12-28T01:10:57.876Z,80.85
2022-12-28T01:11:13.523Z,81.04
2022-12-28T01:11:31.736Z,80.72
2022-12-28T01:11:43.769Z,80.82
2022-12-28T01:11:55.791Z,80.59
2022-12-28T01:12:07.706Z,80.44
2022-12-28T01:12:19.603Z,80.51
2022-12-28T01:12:37.740Z,80.60
2022-12-28T01:12:53.518Z,80.52
2022-12-28T01:13:05.704Z,80.63
2022-12-28T01:13:17.720Z,80.68
2022-12-28T01:13:29.673Z,81.02
2022-12-28T01:13:41.812Z,81.13
2022-12-28T01:13:56.543Z,81.01
2022-12-28T01:14:08.573Z,81.21
2022-12-28T01:14:20.465Z,80.90
2022-12-28T01:14:32.533Z,80.58
2022-12-28T01:14:44.416Z,80.52
2022-12-28T01:14:56.433Z,80.44
2022-12-28T01:15:10.937Z,81.10
2022-12-28T01:15:22.943Z,80.90
2022-12-28T01:15:35.401Z,80.88
2022-12-28T01:15:47.339Z,81.18
2022-12-28T01:15:59.700Z,81.15
2022-12-28T01:16:17.475Z,81.15
2022-12-28T01:16:35.264Z,80.98
2022-12-28T01:16:47.289Z,80.98
2022-12-28T01:17:00.152Z,80.79
2022-12-28T01:17:12.181Z,80.92
2022-12-28T01:17:24.240Z,80.87
2022-12-28T01:17:36.640Z,80.89
2022-12-28T01:17:48.668Z,80.16
2022-12-28T01:18:00.617Z,80.33
2022-12-28T01:18:12.823Z,80.49
2022-12-28T01:18:24.826Z,80.20
2022-12-28T01:18:36.757Z,80.46
2022-12-28T01:18:51.108Z,80.64
2022-12-28T01:19:07.104Z,80.86
2022-12-28T01:19:22.628Z,81.42
2022-12-28T01:19:34.711Z,81.21
2022-12-28T01:19:53.641Z,81.66
2022-12-28T01:20:07.066Z,81.17
2022-12-28T01:20:19.080Z,81.76
2022-12-28T01:20:31.171Z,81.54
2022-12-28T01:20:43.093Z,81.88
2022-12-28T01:20:55.031Z,81.53
2022-12-28T01:21:18.388Z,81.34
2022-12-28T01:21:32.580Z,81.49
2022-12-28T01:21:44.512Z,81.48
2022-12-28T01:21:57.855Z,81.16
2022-12-28T01:22:10.204Z,81.69
2022-12-28T01:22:22.305Z,81.60
2022-12-28T01:22:34.231Z,80.99
2022-12-28T01:22:46.166Z,81.33
2022-12-28T01:22:58.133Z,81.14
2022-12-28T01:23:10.038Z,81.09
2022-12-28T01:23:22.099Z,80.94
2022-12-28T01:23:34.051Z,80.98
2022-12-28T01:23:49.030Z,81.22
2022-12-28T01:24:02.874Z,80.80
2022-12-28T01:24:15.267Z,81.48
2022-12-28T01:24:27.325Z,81.11
2022-12-28T01:24:42.241Z,81.90
2022-12-28T01:24:54.234Z,82.06
2022-12-28T01:25:06.412Z,82.79
2022-12-28T01:25:18.472Z,82.66
2022-12-28T01:25:30.549Z,82.24
2022-12-28T01:25:42.456Z,82.49
2022-12-28T01:25:54.403Z,82.58
2022-12-28T01:26:07.314Z,82.72
2022-12-28T01:26:19.284Z,82.72
2022-12-28T01:26:31.272Z,82.48
2022-12-28T01:26:43.606Z,81.90
2022-12-28T01:26:55.499Z,81.52
2022-12-28T01:27:07.935Z,81.34
2022-12-28T01:27:20.350Z,81.16
2022-12-28T01:27:32.540Z,81.73
2022-12-28T01:27:44.526Z,81.03
2022-12-28T01:27:57.455Z,81.25
2022-12-28T01:28:09.358Z,80.68
2022-12-28T01:28:21.388Z,80.71
2022-12-28T01:28:33.804Z,80.01
2022-12-28T01:28:45.897Z,80.33
2022-12-28T01:28:58.724Z,80.08
2022-12-28T01:29:10.667Z,79.44
2022-12-28T01:29:22.638Z,79.53
2022-12-28T01:29:34.575Z,79.07
2022-12-28T01:29:46.479Z,79.24
2022-12-28T01:29:58.418Z,79.34
2022-12-28T01:30:13.267Z,79.12
2022-12-28T01:30:25.222Z,79.67
2022-12-28T01:30:38.782Z,79.79
2022-12-28T01:30:51.339Z,79.72
2022-12-28T01:31:05.516Z,79.93
2022-12-28T01:31:19.863Z,79.98
2022-12-28T01:31:32.270Z,80.03
2022-12-28T01:31:44.410Z,80.89
2022-12-28T01:31:56.471Z,80.75
2022-12-28T01:32:08.852Z,80.52
2022-12-28T01:32:21.002Z,80.36
2022-12-28T01:32:32.956Z,80.69
2022-12-28T01:32:44.979Z,80.32
2022-12-28T01:32:59.683Z,80.48
2022-12-28T01:33:11.701Z,80.39
2022-12-28T01:33:23.678Z,80.51
2022-12-28T01:33:35.955Z,80.25
2022-12-28T01:33:48.603Z,80.18
2022-12-28T01:34:01.475Z,80.20
2022-12-28T01:34:13.503Z,79.88
2022-12-28T01:34:25.521Z,80.06
2022-12-28T01:34:37.536Z,80.40
2022-12-28T01:34:49.435Z,80.31
2022-12-28T01:35:01.464Z,80.27
2022-12-28T01:35:13.358Z,80.58
2022-12-28T01:35:25.987Z,80.85
2022-12-28T01:35:37.919Z,80.57
2022-12-28T01:35:50.349Z,81.13
2022-12-28T01:36:14.165Z,81.29
2022-12-28T01:36:29.145Z,81.51
2022-12-28T01:36:41.041Z,81.77
2022-12-28T01:36:52.934Z,82.61
2022-12-28T01:37:04.840Z,82.17
2022-12-28T01:37:16.939Z,82.32
2022-12-28T01:37:28.933Z,82.70
2022-12-28T01:37:40.955Z,82.49
2022-12-28T01:37:52.874Z,82.80
2022-12-28T01:38:04.820Z,83.02
2022-12-28T01:38:16.783Z,82.88
2022-12-28T01:38:28.733Z,83.01
2022-12-28T01:38:40.983Z,83.11
2022-12-28T01:38:55.746Z,82.63
2022-12-28T01:39:07.728Z,82.72
2022-12-28T01:39:19.637Z,83.20
2022-12-28T01:39:31.603Z,82.93
2022-12-28T01:39:44.211Z,82.97
2022-12-28T01:39:56.118Z,83.50
2022-12-28T01:40:09.919Z,83.22
2022-12-28T01:40:21.908Z,83.71
2022-12-28T01:40:33.844Z,83.48
2022-12-28T01:40:45.876Z,83.80
2022-12-28T01:40:57.777Z,83.32
2022-12-28T01:41:13.288Z,83.34
2022-12-28T01:41:27.612Z,83.09
2022-12-28T01:41:42.146Z,83.50
2022-12-28T01:41:54.085Z,82.76
2022-12-28T01:42:06.096Z,82.65
2022-12-28T01:42:20.158Z,82.22
2022-12-28T01:42:32.943Z,82.64
2022-12-28T01:42:44.893Z,82.45
2022-12-28T01:42:56.784Z,82.54
2022-12-28T01:43:15.454Z,83.12
2022-12-28T01:43:43.428Z,83.24
2022-12-28T01:43:55.324Z,83.24
2022-12-28T01:44:07.232Z,83.63
2022-12-28T01:44:25.074Z,83.51
2022-12-28T01:44:48.222Z,83.76
2022-12-28T01:45:15.481Z,83.24
2022-12-28T01:45:27.543Z,83.39
2022-12-28T01:45:40.400Z,83.06
2022-12-28T01:45:53.081Z,83.29
2022-12-28T01:46:05.289Z,83.21
2022-12-28T01:46:22.132Z,82.64
2022-12-28T01:46:50.087Z,82.46
2022-12-28T01:47:06.954Z,82.42
2022-12-28T01:47:34.823Z,82.76
2022-12-28T01:47:49.494Z,82.85
2022-12-28T01:48:01.577Z,82.91
2022-12-28T01:48:23.713Z,83.37
2022-12-28T01:48:41.445Z,84.34
2022-12-28T01:49:02.801Z,84.46
2022-12-28T01:49:31.036Z,85.52
2022-12-28T01:49:46.083Z,85.17
2022-12-28T01:50:15.256Z,85.09
2022-12-28T01:50:29.009Z,85.35
2022-12-28T01:50:41.009Z,85.33
2022-12-28T01:50:53.749Z,86.06
2022-12-28T01:51:05.813Z,85.91
2022-12-28T01:51:20.415Z,85.99
2022-12-28T01:51:43.278Z,86.32
2022-12-28T01:52:10.341Z,85.65
2022-12-28T01:52:30.976Z,85.87
2022-12-28T01:52:51.823Z,85.48
2022-12-28T01:53:05.531Z,84.48
2022-12-28T01:53:19.462Z,84.62
2022-12-28T01:53:31.591Z,83.77
2022-12-28T01:53:43.841Z,83.50
2022-12-28T01:53:59.359Z,83.89
2022-12-28T01:54:11.660Z,83.73
2022-12-28T01:54:26.919Z,83.99
2022-12-28T01:54:45.177Z,83.53
2022-12-28T01:54:59.905Z,83.84
2022-12-28T01:55:21.670Z,84.13
2022-12-28T01:55:36.671Z,83.70
2022-12-28T01:55:48.938Z,83.79
2022-12-28T01:56:01.062Z,84.07
2022-12-28T01:56:13.236Z,84.14
2022-12-28T01:56:26.225Z,84.04
2022-12-28T01:56:39.289Z,83.88
2022-12-28T01:56:52.139Z,83.61
2022-12-28T01:57:04.551Z,84.18
2022-12-28T01:57:18.975Z,83.78
2022-12-28T01:57:34.192Z,83.70
2022-12-28T01:57:58.075Z,83.70
2022-12-28T01:58:18.650Z,83.73
2022-12-28T01:58:32.069Z,84.25
2022-12-28T01:58:45.123Z,83.78
2022-12-28T01:58:58.455Z,83.74
2022-12-28T01:59:11.326Z,84.24
2022-12-28T01:59:28.854Z,83.81
2022-12-28T01:59:43.674Z,83.39
2022-12-28T02:00:10.925Z,83.54
2022-12-28T02:00:23.074Z,83.07
2022-12-28T02:00:35.639Z,83.50
2022-12-28T02:00:50.756Z,83.27
2022-12-28T02:01:03.821Z,82.58
2022-12-28T02:01:17.524Z,82.49
2022-12-28T02:01:44.409Z,82.70
2022-12-28T02:01:56.844Z,82.27
2022-12-28T02:02:12.096Z,82.08
2022-12-28T02:02:24.700Z,82.09
2022-12-28T02:02:37.405Z,81.96
2022-12-28T02:02:54.713Z,82.41
2022-12-28T02:03:18.951Z,81.93
2022-12-28T02:03:34.342Z,82.18
2022-12-28T02:03:46.374Z,82.16
2022-12-28T02:03:58.525Z,82.23
2022-12-28T02:04:10.941Z,82.43
2022-12-28T02:04:24.336Z,82.18
2022-12-28T02:04:36.388Z,82.68
2022-12-28T02:04:49.002Z,82.26
2022-12-28T02:05:01.375Z,82.23
2022-12-28T02:05:14.825Z,82.34
2022-12-28T02:05:34.945Z,82.05
2022-12-28T02:05:49.870Z,82.01
2022-12-28T02:06:05.754Z,81.90
2022-12-28T02:06:19.724Z,82.17
2022-12-28T02:06:32.005Z,81.72
2022-12-28T02:06:44.489Z,81.91
2022-12-28T02:06:56.737Z,81.94
2022-12-28T02:07:09.460Z,81.48
2022-12-28T02:07:41.226Z,81.65
2022-12-28T02:08:17.225Z,81.43
2022-12-28T02:08:49.565Z,81.42
2022-12-28T02:09:07.111Z,81.29
2022-12-28T02:09:23.294Z,81.42
2022-12-28T02:09:40.195Z,81.70
2022-12-28T02:10:42.996Z,81.19
2022-12-28T02:10:43.570Z,81.55
2022-12-28T02:10:57.179Z,80.97
2022-12-28T02:11:16.300Z,80.79
2022-12-28T02:11:29.528Z,81.30
2022-12-28T02:11:41.557Z,81.09
2022-12-28T02:11:54.441Z,80.68
2022-12-28T02:12:13.305Z,80.71
2022-12-28T02:12:25.375Z,80.57
2022-12-28T02:12:38.801Z,80.51
2022-12-28T02:12:51.816Z,80.48
2022-12-28T02:13:04.996Z,80.41
2022-12-28T02:13:18.369Z,80.49
2022-12-28T02:13:31.474Z,80.33
2022-12-28T02:13:45.967Z,80.33
2022-12-28T02:13:58.739Z,80.65
2022-12-28T02:14:13.739Z,80.26
2022-12-28T02:14:25.730Z,80.66
2022-12-28T02:14:39.214Z,80.58
2022-12-28T02:14:51.957Z,80.55
2022-12-28T02:15:04.704Z,80.59
2022-12-28T02:15:21.250Z,80.88
2022-12-28T02:15:35.161Z,80.66
2022-12-28T02:15:47.980Z,80.52
2022-12-28T02:15:59.938Z,80.35
2022-12-28T02:16:12.422Z,80.29
2022-12-28T02:16:24.477Z,80.44
2022-12-28T02:16:37.413Z,80.39
2022-12-28T02:16:49.586Z,80.29
2022-12-28T02:17:01.658Z,80.49
2022-12-28T02:17:13.858Z,80.42
2022-12-28T02:17:26.036Z,80.45
2022-12-28T02:17:38.081Z,80.53
2022-12-28T02:17:50.572Z,79.90
2022-12-28T02:18:02.704Z,80.46
2022-12-28T02:18:16.842Z,80.29
2022-12-28T02:18:28.963Z,80.36
2022-12-28T02:18:43.694Z,80.04
2022-12-28T02:18:56.237Z,79.97
2022-12-28T02:19:12.112Z,79.81
2022-12-28T02:19:59.421Z,80.34
2022-12-28T02:20:11.654Z,80.38
2022-12-28T02:20:30.924Z,80.40
2022-12-28T02:21:15.766Z,80.33
2022-12-28T02:22:02.507Z,80.32
2022-12-28T02:22:42.419Z,80.04
2022-12-28T02:23:10.156Z,80.22
2022-12-28T02:23:34.302Z,80.15
2022-12-28T02:24:04.797Z,80.00
2022-12-28T02:25:11.456Z,80.04
2022-12-28T02:25:32.733Z,80.03
2022-12-28T02:25:44.999Z,80.29
2022-12-28T02:26:30.821Z,80.57
2022-12-28T02:26:55.418Z,80.80
2022-12-28T02:27:19.077Z,81.01
2022-12-28T02:28:03.385Z,81.07
2022-12-28T02:28:52.680Z,81.12
2022-12-28T02:29:13.432Z,80.93
2022-12-28T02:29:37.741Z,80.57
2022-12-28T02:30:05.987Z,80.91
2022-12-28T02:30:19.187Z,80.80
2022-12-28T02:30:35.106Z,80.83
2022-12-28T02:31:02.360Z,80.55
2022-12-28T02:31:28.490Z,80.57
2022-12-28T02:31:58.261Z,80.65
2022-12-28T02:32:50.815Z,80.32
2022-12-28T02:33:22.039Z,80.72
2022-12-28T02:33:50.724Z,80.85
2022-12-28T02:34:19.648Z,80.85
2022-12-28T02:34:49.603Z,80.29
2022-12-28T02:35:01.653Z,80.38
2022-12-28T02:35:24.643Z,80.07
2022-12-28T02:35:39.316Z,80.16
2022-12-28T02:36:13.015Z,80.04
2022-12-28T02:36:35.034Z,80.12
2022-12-28T02:36:53.660Z,79.57
2022-12-28T02:37:18.919Z,79.71
2022-12-28T02:37:38.455Z,79.73
2022-12-28T02:37:59.560Z,79.57
2022-12-28T02:38:18.933Z,79.93
2022-12-28T02:38:34.875Z,79.59
2022-12-28T02:40:58.308Z,79.21
2022-12-28T02:41:20.091Z,79.72
2022-12-28T02:41:36.840Z,79.65
2022-12-28T02:41:50.809Z,79.58
2022-12-28T02:42:06.540Z,79.33
2022-12-28T02:42:20.815Z,79.34
2022-12-28T02:42:36.270Z,79.09
2022-12-28T02:42:49.625Z,79.26
2022-12-28T02:43:03.299Z,79.15
2022-12-28T02:43:15.452Z,79.25
2022-12-28T02:43:28.097Z,79.61
2022-12-28T02:43:40.516Z,79.94
2022-12-28T02:43:54.246Z,80.61
2022-12-28T02:44:06.507Z,80.97
2022-12-28T02:44:38.535Z,81.06
2022-12-28T02:45:09.264Z,81.33
2022-12-28T02:45:57.951Z,80.98
2022-12-28T02:47:01.836Z,80.88
2022-12-28T02:47:35.703Z,80.66
2022-12-28T02:48:07.187Z,80.21
2022-12-28T02:48:38.305Z,80.11
2022-12-28T02:49:09.221Z,80.20
2022-12-28T02:49:45.755Z,80.60
2022-12-28T02:50:08.242Z,81.40
2022-12-28T02:50:20.850Z,81.75
2022-12-28T02:50:45.511Z,82.03
2022-12-28T02:51:44.893Z,81.83
2022-12-28T02:52:18.272Z,82.23
2022-12-28T02:52:38.979Z,82.12
2022-12-28T02:52:58.641Z,82.12
2022-12-28T02:53:33.196Z,82.19
2022-12-28T02:53:52.151Z,82.07
2022-12-28T02:54:40.818Z,81.65
2022-12-28T02:55:34.079Z,81.57
2022-12-28T02:56:08.051Z,81.26
2022-12-28T02:56:31.844Z,81.24
2022-12-28T02:57:00.243Z,81.03
2022-12-28T02:57:33.123Z,80.81
2022-12-28T02:57:50.942Z,80.60
2022-12-28T02:58:13.645Z,80.77
2022-12-28T02:58:44.699Z,80.81
2022-12-28T02:59:23.130Z,80.56
2022-12-28T02:59:52.673Z,80.62
2022-12-28T03:00:15.400Z,80.38
2022-12-28T03:00:57.854Z,80.18
2022-12-28T03:01:43.883Z,80.01
2022-12-28T03:02:14.210Z,79.63
2022-12-28T03:02:57.198Z,80.18
2022-12-28T03:03:36.337Z,81.17
2022-12-28T03:04:05.017Z,81.26
2022-12-28T03:04:24.563Z,81.18
2022-12-28T03:04:46.173Z,81.26
2022-12-28T03:05:11.962Z,81.52
2022-12-28T03:06:07.277Z,81.37
2022-12-28T03:07:05.739Z,81.17
2022-12-28T03:07:56.570Z,80.41
2022-12-28T03:08:19.872Z,80.20
2022-12-28T03:08:46.229Z,79.82
2022-12-28T03:09:10.274Z,79.69
2022-12-28T03:09:34.050Z,78.90
2022-12-28T03:10:09.165Z,79.22
2022-12-28T03:10:43.637Z,79.28
2022-12-28T03:11:17.839Z,79.35
2022-12-28T03:11:44.209Z,79.57
2022-12-28T03:12:19.775Z,79.75
2022-12-28T03:12:50.350Z,79.82
2022-12-28T03:13:33.413Z,79.91
2022-12-28T03:14:06.624Z,80.54
2022-12-28T03:14:28.142Z,80.93
2022-12-28T03:15:11.690Z,80.42
2022-12-28T03:15:30.839Z,80.62
2022-12-28T03:15:42.986Z,80.54
2022-12-28T03:15:57.645Z,80.34
2022-12-28T03:16:13.957Z,80.77
2022-12-28T03:16:31.888Z,80.93
2022-12-28T03:17:06.036Z,81.29
2022-12-28T03:17:38.433Z,81.60
2022-12-28T03:18:16.564Z,81.48
2022-12-28T03:18:49.304Z,81.42
2022-12-28T03:19:27.517Z,81.37
2022-12-28T03:20:05.394Z,81.38
2022-12-28T03:20:41.800Z,81.36
2022-12-28T03:21:14.611Z,81.65
2022-12-28T03:21:48.716Z,81.50
2022-12-28T03:22:19.613Z,82.00
2022-12-28T03:22:53.924Z,81.92
2022-12-28T03:23:27.988Z,81.93
2022-12-28T03:24:01.360Z,82.42
2022-12-28T03:24:33.933Z,82.71
2022-12-28T03:25:04.282Z,82.80
2022-12-28T03:25:40.175Z,82.98
2022-12-28T03:26:12.581Z,83.56
2022-12-28T03:26:43.067Z,83.71
2022-12-28T03:27:16.930Z,83.35
2022-12-28T03:27:49.333Z,82.92
2022-12-28T03:28:24.220Z,82.81
2022-12-28T03:28:56.544Z,82.45
2022-12-28T03:29:31.076Z,82.63
2022-12-28T03:30:08.664Z,82.75
2022-12-28T03:30:41.215Z,83.79
2022-12-28T03:31:06.916Z,83.87
2022-12-28T03:31:21.276Z,84.00
2022-12-28T03:31:35.080Z,83.51
2022-12-28T03:31:47.384Z,84.03
2022-12-28T03:31:59.417Z,83.90
2022-12-28T03:32:11.772Z,83.42
2022-12-28T03:32:24.531Z,83.51
2022-12-28T03:32:36.568Z,83.48
2022-12-28T03:32:49.368Z,83.53
2022-12-28T03:33:02.306Z,83.61
2022-12-28T03:33:14.314Z,83.65
2022-12-28T03:33:26.367Z,83.44
2022-12-28T03:33:51.097Z,83.17
2022-12-28T03:34:06.779Z,83.17
2022-12-28T03:34:19.008Z,83.27
2022-12-28T03:34:31.494Z,82.94
2022-12-28T03:34:43.614Z,82.83